sensor_id;sensor_type;location;lat;lon;timestamp;temperature;humidity
285;DHT22;127;48.770;9.212;2023-02-25T00:01:43;4.10;1.00
285;DHT22;127;48.770;9.212;2023-02-25T00:04:12;4.10;1.00
285;DHT22;127;48.770;9.212;2023-02-25T00:06:41;4.10;1.00
285;DHT22;127;48.770;9.212;2023-02-25T00:09:13;4.10;1.00
285;DHT22;127;48.770;9.212;2023-02-25T00:11:42;4.10;1.00
285;DHT22;127;48.770;9.212;2023-02-25T00:14:10;4.10;1.00
285;DHT22;127;48.770;9.212;2023-02-25T00:16:39;4.10;1.00
285;DHT22;127;48.770;9.212;2023-02-25T00:19:08;4.10;1.00
285;DHT22;127;48.770;9.212;2023-02-25T00:21:36;4.10;1.00
285;DHT22;127;48.770;9.212;2023-02-25T00:24:06;4.10;1.00
285;DHT22;127;48.770;9.212;2023-02-25T00:26:37;4.00;1.00
285;DHT22;127;48.770;9.212;2023-02-25T00:29:06;4.10;1.00
285;DHT22;127;48.770;9.212;2023-02-25T00:31:35;4.10;1.00
285;DHT22;127;48.770;9.212;2023-02-25T00:34:03;4.10;1.00
285;DHT22;127;48.770;9.212;2023-02-25T00:36:32;4.10;1.00
285;DHT22;127;48.770;9.212;2023-02-25T00:39:00;4.00;1.00
285;DHT22;127;48.770;9.212;2023-02-25T00:41:29;4.00;1.00
285;DHT22;127;48.770;9.212;2023-02-25T00:44:01;4.00;1.00
285;DHT22;127;48.770;9.212;2023-02-25T00:46:32;4.00;1.00
285;DHT22;127;48.770;9.212;2023-02-25T00:49:01;4.10;1.00
285;DHT22;127;48.770;9.212;2023-02-25T00:51:31;4.00;1.00
285;DHT22;127;48.770;9.212;2023-02-25T00:54:00;4.00;1.00
285;DHT22;127;48.770;9.212;2023-02-25T00:56:28;4.00;1.00
285;DHT22;127;48.770;9.212;2023-02-25T00:59:01;4.00;1.00
285;DHT22;127;48.770;9.212;2023-02-25T01:01:31;4.00;1.00
285;DHT22;127;48.770;9.212;2023-02-25T01:04:03;4.00;99.90
285;DHT22;127;48.770;9.212;2023-02-25T01:06:32;4.00;99.90
285;DHT22;127;48.770;9.212;2023-02-25T01:09:03;4.00;99.90
285;DHT22;127;48.770;9.212;2023-02-25T01:11:34;4.00;99.90
285;DHT22;127;48.770;9.212;2023-02-25T01:14:07;4.00;99.90
285;DHT22;127;48.770;9.212;2023-02-25T01:16:36;4.00;99.90
285;DHT22;127;48.770;9.212;2023-02-25T01:19:07;4.00;99.90
285;DHT22;127;48.770;9.212;2023-02-25T01:21:38;4.00;99.90
285;DHT22;127;48.770;9.212;2023-02-25T01:24:09;4.00;99.90
285;DHT22;127;48.770;9.212;2023-02-25T01:26:40;3.90;99.90
285;DHT22;127;48.770;9.212;2023-02-25T01:29:13;3.90;99.90
285;DHT22;127;48.770;9.212;2023-02-25T01:31:43;3.90;99.90
285;DHT22;127;48.770;9.212;2023-02-25T01:34:13;3.90;99.90
285;DHT22;127;48.770;9.212;2023-02-25T01:36:43;3.80;99.90
285;DHT22;127;48.770;9.212;2023-02-25T01:39:13;3.80;99.90
285;DHT22;127;48.770;9.212;2023-02-25T01:41:43;3.80;99.90
285;DHT22;127;48.770;9.212;2023-02-25T01:44:17;3.80;99.90
285;DHT22;127;48.770;9.212;2023-02-25T01:46:47;3.80;99.90
285;DHT22;127;48.770;9.212;2023-02-25T01:49:19;3.80;99.90
285;DHT22;127;48.770;9.212;2023-02-25T01:51:51;3.80;99.90
285;DHT22;127;48.770;9.212;2023-02-25T01:54:21;3.80;99.90
285;DHT22;127;48.770;9.212;2023-02-25T01:56:51;3.80;99.90
285;DHT22;127;48.770;9.212;2023-02-25T01:59:26;3.80;99.90
285;DHT22;127;48.770;9.212;2023-02-25T02:01:56;3.80;99.90
285;DHT22;127;48.770;9.212;2023-02-25T02:04:25;3.80;99.90
285;DHT22;127;48.770;9.212;2023-02-25T02:06:54;3.80;99.90
285;DHT22;127;48.770;9.212;2023-02-25T02:09:26;3.80;99.90
285;DHT22;127;48.770;9.212;2023-02-25T02:11:55;3.70;99.90
285;DHT22;127;48.770;9.212;2023-02-25T02:14:28;3.80;99.90
285;DHT22;127;48.770;9.212;2023-02-25T02:17:14;3.70;99.90
285;DHT22;127;48.770;9.212;2023-02-25T02:20:04;3.80;99.90
285;DHT22;127;48.770;9.212;2023-02-25T02:22:51;3.70;99.90
285;DHT22;127;48.770;9.212;2023-02-25T02:25:51;3.80;99.90
285;DHT22;127;48.770;9.212;2023-02-25T02:28:44;3.70;99.90
285;DHT22;127;48.770;9.212;2023-02-25T02:31:41;3.80;99.90
285;DHT22;127;48.770;9.212;2023-02-25T02:34:20;3.80;99.90
285;DHT22;127;48.770;9.212;2023-02-25T02:37:00;3.80;99.90
285;DHT22;127;48.770;9.212;2023-02-25T02:39:40;3.80;99.90
285;DHT22;127;48.770;9.212;2023-02-25T02:42:16;3.80;99.90
285;DHT22;127;48.770;9.212;2023-02-25T02:44:52;3.80;99.90
285;DHT22;127;48.770;9.212;2023-02-25T02:47:29;3.90;99.90
285;DHT22;127;48.770;9.212;2023-02-25T02:50:03;3.90;99.90
285;DHT22;127;48.770;9.212;2023-02-25T02:52:34;3.90;99.90
285;DHT22;127;48.770;9.212;2023-02-25T02:55:09;3.90;99.90
285;DHT22;127;48.770;9.212;2023-02-25T02:57:47;3.90;99.90
285;DHT22;127;48.770;9.212;2023-02-25T03:00:19;3.90;99.90
285;DHT22;127;48.770;9.212;2023-02-25T03:02:55;3.90;99.90
285;DHT22;127;48.770;9.212;2023-02-25T03:05:26;3.90;99.90
285;DHT22;127;48.770;9.212;2023-02-25T03:08:02;3.90;99.90
285;DHT22;127;48.770;9.212;2023-02-25T03:10:34;3.90;99.90
285;DHT22;127;48.770;9.212;2023-02-25T03:13:03;3.90;99.90
285;DHT22;127;48.770;9.212;2023-02-25T03:15:32;3.90;99.90
285;DHT22;127;48.770;9.212;2023-02-25T03:18:08;3.90;99.90
285;DHT22;127;48.770;9.212;2023-02-25T03:20:41;3.90;99.90
285;DHT22;127;48.770;9.212;2023-02-25T03:23:16;3.90;99.90
285;DHT22;127;48.770;9.212;2023-02-25T03:25:47;3.90;99.90
285;DHT22;127;48.770;9.212;2023-02-25T03:28:23;3.90;99.90
285;DHT22;127;48.770;9.212;2023-02-25T03:31:00;3.90;99.90
285;DHT22;127;48.770;9.212;2023-02-25T03:33:37;3.80;99.90
285;DHT22;127;48.770;9.212;2023-02-25T03:36:16;3.90;99.90
285;DHT22;127;48.770;9.212;2023-02-25T03:38:50;3.90;99.90
285;DHT22;127;48.770;9.212;2023-02-25T03:41:20;3.90;99.90
285;DHT22;127;48.770;9.212;2023-02-25T03:43:55;3.80;99.90
285;DHT22;127;48.770;9.212;2023-02-25T03:46:24;3.80;99.90
285;DHT22;127;48.770;9.212;2023-02-25T03:48:57;3.80;99.90
285;DHT22;127;48.770;9.212;2023-02-25T03:51:30;3.70;99.90
285;DHT22;127;48.770;9.212;2023-02-25T03:54:00;3.70;99.90
285;DHT22;127;48.770;9.212;2023-02-25T03:56:29;3.50;99.90
285;DHT22;127;48.770;9.212;2023-02-25T03:58:57;3.40;99.90
285;DHT22;127;48.770;9.212;2023-02-25T04:01:29;3.40;99.90
285;DHT22;127;48.770;9.212;2023-02-25T04:04:00;3.30;99.90
285;DHT22;127;48.770;9.212;2023-02-25T04:06:29;3.40;99.90
285;DHT22;127;48.770;9.212;2023-02-25T04:08:58;3.40;99.90
285;DHT22;127;48.770;9.212;2023-02-25T04:11:26;3.50;99.90
285;DHT22;127;48.770;9.212;2023-02-25T04:13:55;3.50;99.90
285;DHT22;127;48.770;9.212;2023-02-25T04:16:24;3.50;99.90
285;DHT22;127;48.770;9.212;2023-02-25T04:18:52;3.50;99.90
285;DHT22;127;48.770;9.212;2023-02-25T04:21:29;3.50;99.90
285;DHT22;127;48.770;9.212;2023-02-25T04:23:58;3.50;99.90
285;DHT22;127;48.770;9.212;2023-02-25T04:26:27;3.50;99.90
285;DHT22;127;48.770;9.212;2023-02-25T04:28:55;3.60;99.90
285;DHT22;127;48.770;9.212;2023-02-25T04:31:24;3.60;99.90
285;DHT22;127;48.770;9.212;2023-02-25T04:33:52;3.50;99.90
285;DHT22;127;48.770;9.212;2023-02-25T04:36:27;3.50;99.90
285;DHT22;127;48.770;9.212;2023-02-25T04:38:57;3.50;99.90
285;DHT22;127;48.770;9.212;2023-02-25T04:41:29;3.60;99.90
285;DHT22;127;48.770;9.212;2023-02-25T04:43:59;3.50;99.90
285;DHT22;127;48.770;9.212;2023-02-25T04:46:29;3.50;99.90
285;DHT22;127;48.770;9.212;2023-02-25T04:48:57;3.50;99.90
285;DHT22;127;48.770;9.212;2023-02-25T04:51:29;3.50;99.90
285;DHT22;127;48.770;9.212;2023-02-25T04:53:58;3.50;99.90
285;DHT22;127;48.770;9.212;2023-02-25T04:56:26;3.50;99.90
285;DHT22;127;48.770;9.212;2023-02-25T04:58:55;3.50;99.90
285;DHT22;127;48.770;9.212;2023-02-25T05:01:24;3.50;99.90
285;DHT22;127;48.770;9.212;2023-02-25T05:03:53;3.50;99.90
285;DHT22;127;48.770;9.212;2023-02-25T05:06:22;3.50;99.90
285;DHT22;127;48.770;9.212;2023-02-25T05:08:54;3.50;99.90
285;DHT22;127;48.770;9.212;2023-02-25T05:11:24;3.50;99.90
285;DHT22;127;48.770;9.212;2023-02-25T05:13:53;3.50;99.90
285;DHT22;127;48.770;9.212;2023-02-25T05:16:23;3.50;99.90
285;DHT22;127;48.770;9.212;2023-02-25T05:18:52;3.50;99.90
285;DHT22;127;48.770;9.212;2023-02-25T05:21:22;3.50;99.90
285;DHT22;127;48.770;9.212;2023-02-25T05:23:54;3.50;99.90
285;DHT22;127;48.770;9.212;2023-02-25T05:26:23;3.50;99.90
285;DHT22;127;48.770;9.212;2023-02-25T05:28:53;3.50;99.90
285;DHT22;127;48.770;9.212;2023-02-25T05:31:23;3.50;99.90
285;DHT22;127;48.770;9.212;2023-02-25T05:33:52;3.40;99.90
285;DHT22;127;48.770;9.212;2023-02-25T05:36:21;3.40;99.90
285;DHT22;127;48.770;9.212;2023-02-25T05:38:56;3.40;99.90
285;DHT22;127;48.770;9.212;2023-02-25T05:41:28;3.40;99.90
285;DHT22;127;48.770;9.212;2023-02-25T05:43:57;3.40;99.90
285;DHT22;127;48.770;9.212;2023-02-25T05:46:25;3.50;99.90
285;DHT22;127;48.770;9.212;2023-02-25T05:48:54;3.50;99.90
285;DHT22;127;48.770;9.212;2023-02-25T05:51:23;3.40;99.90
285;DHT22;127;48.770;9.212;2023-02-25T05:53:54;3.50;99.90
285;DHT22;127;48.770;9.212;2023-02-25T05:56:24;3.50;99.90
285;DHT22;127;48.770;9.212;2023-02-25T05:58:53;3.50;99.90
285;DHT22;127;48.770;9.212;2023-02-25T06:01:24;3.60;99.90
285;DHT22;127;48.770;9.212;2023-02-25T06:03:54;3.60;99.90
285;DHT22;127;48.770;9.212;2023-02-25T06:06:26;3.50;99.90
285;DHT22;127;48.770;9.212;2023-02-25T06:08:58;3.50;99.90
285;DHT22;127;48.770;9.212;2023-02-25T06:11:31;3.50;99.90
285;DHT22;127;48.770;9.212;2023-02-25T06:13:59;3.50;99.90
285;DHT22;127;48.770;9.212;2023-02-25T06:16:29;3.60;99.90
285;DHT22;127;48.770;9.212;2023-02-25T06:18:59;3.60;99.90
285;DHT22;127;48.770;9.212;2023-02-25T06:21:28;3.60;99.90
285;DHT22;127;48.770;9.212;2023-02-25T06:24:02;3.60;99.90
285;DHT22;127;48.770;9.212;2023-02-25T06:26:31;3.60;99.90
285;DHT22;127;48.770;9.212;2023-02-25T06:29:06;3.60;99.90
285;DHT22;127;48.770;9.212;2023-02-25T06:31:35;3.50;99.90
285;DHT22;127;48.770;9.212;2023-02-25T06:34:04;3.60;99.90
285;DHT22;127;48.770;9.212;2023-02-25T06:36:33;3.60;99.90
285;DHT22;127;48.770;9.212;2023-02-25T06:39:04;3.70;99.90
285;DHT22;127;48.770;9.212;2023-02-25T06:41:33;3.70;99.90
285;DHT22;127;48.770;9.212;2023-02-25T06:44:01;3.70;99.90
285;DHT22;127;48.770;9.212;2023-02-25T06:46:31;3.70;99.90
285;DHT22;127;48.770;9.212;2023-02-25T06:48:59;3.60;99.90
285;DHT22;127;48.770;9.212;2023-02-25T06:51:28;3.60;99.90
285;DHT22;127;48.770;9.212;2023-02-25T06:53:56;3.70;99.90
285;DHT22;127;48.770;9.212;2023-02-25T06:56:28;3.60;99.90
285;DHT22;127;48.770;9.212;2023-02-25T06:58:56;3.40;99.90
285;DHT22;127;48.770;9.212;2023-02-25T07:01:26;3.40;99.90
285;DHT22;127;48.770;9.212;2023-02-25T07:03:55;3.50;99.90
285;DHT22;127;48.770;9.212;2023-02-25T07:06:24;3.50;99.90
285;DHT22;127;48.770;9.212;2023-02-25T07:08:52;3.60;99.90
285;DHT22;127;48.770;9.212;2023-02-25T07:11:29;3.50;99.90
285;DHT22;127;48.770;9.212;2023-02-25T07:13:59;3.50;99.90
285;DHT22;127;48.770;9.212;2023-02-25T07:16:28;3.60;99.90
285;DHT22;127;48.770;9.212;2023-02-25T07:18:59;3.60;99.90
285;DHT22;127;48.770;9.212;2023-02-25T07:21:29;3.60;99.90
285;DHT22;127;48.770;9.212;2023-02-25T07:23:58;3.70;99.90
285;DHT22;127;48.770;9.212;2023-02-25T07:26:29;3.80;99.90
285;DHT22;127;48.770;9.212;2023-02-25T07:28:58;3.80;99.90
285;DHT22;127;48.770;9.212;2023-02-25T07:31:27;3.80;99.90
285;DHT22;127;48.770;9.212;2023-02-25T07:33:57;3.90;99.90
285;DHT22;127;48.770;9.212;2023-02-25T07:36:29;3.90;99.90
285;DHT22;127;48.770;9.212;2023-02-25T07:38:58;4.00;99.90
285;DHT22;127;48.770;9.212;2023-02-25T07:41:29;4.00;99.90
285;DHT22;127;48.770;9.212;2023-02-25T07:43:58;4.10;99.90
285;DHT22;127;48.770;9.212;2023-02-25T07:46:27;4.10;99.90
285;DHT22;127;48.770;9.212;2023-02-25T07:48:56;4.10;99.90
285;DHT22;127;48.770;9.212;2023-02-25T07:51:26;4.20;99.90
285;DHT22;127;48.770;9.212;2023-02-25T07:53:56;4.30;99.90
285;DHT22;127;48.770;9.212;2023-02-25T07:56:29;4.40;99.90
285;DHT22;127;48.770;9.212;2023-02-25T07:58:58;4.60;99.90
285;DHT22;127;48.770;9.212;2023-02-25T08:01:29;4.60;99.90
285;DHT22;127;48.770;9.212;2023-02-25T08:04:01;4.50;99.90
285;DHT22;127;48.770;9.212;2023-02-25T08:06:34;4.50;99.90
285;DHT22;127;48.770;9.212;2023-02-25T08:09:03;4.50;99.90
285;DHT22;127;48.770;9.212;2023-02-25T08:11:35;4.50;99.90
285;DHT22;127;48.770;9.212;2023-02-25T08:14:04;4.60;99.90
285;DHT22;127;48.770;9.212;2023-02-25T08:16:33;4.80;99.90
285;DHT22;127;48.770;9.212;2023-02-25T08:19:02;4.90;99.90
285;DHT22;127;48.770;9.212;2023-02-25T08:21:31;5.00;99.90
285;DHT22;127;48.770;9.212;2023-02-25T08:24:01;4.80;99.90
285;DHT22;127;48.770;9.212;2023-02-25T08:26:30;4.60;99.90
285;DHT22;127;48.770;9.212;2023-02-25T08:29:01;4.40;99.90
285;DHT22;127;48.770;9.212;2023-02-25T08:31:31;4.30;99.90
285;DHT22;127;48.770;9.212;2023-02-25T08:34:00;4.40;99.90
285;DHT22;127;48.770;9.212;2023-02-25T08:36:29;4.60;99.90
285;DHT22;127;48.770;9.212;2023-02-25T08:38:59;4.60;99.90
285;DHT22;127;48.770;9.212;2023-02-25T08:41:28;4.70;99.90
285;DHT22;127;48.770;9.212;2023-02-25T08:43:58;4.90;99.90
285;DHT22;127;48.770;9.212;2023-02-25T08:46:31;5.10;99.90
285;DHT22;127;48.770;9.212;2023-02-25T08:49:00;5.20;99.90
285;DHT22;127;48.770;9.212;2023-02-25T08:51:30;5.50;99.90
285;DHT22;127;48.770;9.212;2023-02-25T08:54:02;5.40;99.90
285;DHT22;127;48.770;9.212;2023-02-25T08:56:31;5.20;99.90
285;DHT22;127;48.770;9.212;2023-02-25T08:59:00;5.20;99.90
285;DHT22;127;48.770;9.212;2023-02-25T09:01:32;5.20;99.90
285;DHT22;127;48.770;9.212;2023-02-25T09:04:10;5.10;99.90
285;DHT22;127;48.770;9.212;2023-02-25T09:06:39;5.10;99.90
285;DHT22;127;48.770;9.212;2023-02-25T09:09:08;5.10;99.90
285;DHT22;127;48.770;9.212;2023-02-25T09:11:38;5.20;99.90
285;DHT22;127;48.770;9.212;2023-02-25T09:14:10;5.60;99.90
285;DHT22;127;48.770;9.212;2023-02-25T09:16:42;5.90;99.90
285;DHT22;127;48.770;9.212;2023-02-25T09:19:10;6.30;99.90
285;DHT22;127;48.770;9.212;2023-02-25T09:21:42;7.00;99.90
285;DHT22;127;48.770;9.212;2023-02-25T09:24:13;8.20;99.90
285;DHT22;127;48.770;9.212;2023-02-25T09:26:42;8.70;99.90
285;DHT22;127;48.770;9.212;2023-02-25T09:29:10;9.10;99.90
285;DHT22;127;48.770;9.212;2023-02-25T09:31:41;9.10;99.90
285;DHT22;127;48.770;9.212;2023-02-25T09:34:10;8.10;99.90
285;DHT22;127;48.770;9.212;2023-02-25T09:36:39;7.70;99.90
285;DHT22;127;48.770;9.212;2023-02-25T09:39:08;7.60;99.90
285;DHT22;127;48.770;9.212;2023-02-25T09:41:43;7.60;99.90
285;DHT22;127;48.770;9.212;2023-02-25T09:44:24;7.30;99.90
285;DHT22;127;48.770;9.212;2023-02-25T09:47:27;7.60;99.90
285;DHT22;127;48.770;9.212;2023-02-25T09:50:13;9.40;99.90
285;DHT22;127;48.770;9.212;2023-02-25T09:53:12;12.10;99.90
285;DHT22;127;48.770;9.212;2023-02-25T09:59:01;14.70;99.90
285;DHT22;127;48.770;9.212;2023-02-25T10:01:33;13.00;99.90
285;DHT22;127;48.770;9.212;2023-02-25T10:04:14;10.80;99.90
285;DHT22;127;48.770;9.212;2023-02-25T10:06:46;9.60;99.90
285;DHT22;127;48.770;9.212;2023-02-25T10:09:20;8.90;99.90
285;DHT22;127;48.770;9.212;2023-02-25T10:11:55;8.50;99.90
285;DHT22;127;48.770;9.212;2023-02-25T10:17:36;7.80;99.90
285;DHT22;127;48.770;9.212;2023-02-25T10:23:16;7.60;99.90
285;DHT22;127;48.770;9.212;2023-02-25T10:25:52;7.50;99.90
285;DHT22;127;48.770;9.212;2023-02-25T10:28:22;7.30;99.90
285;DHT22;127;48.770;9.212;2023-02-25T10:30:56;7.30;99.90
285;DHT22;127;48.770;9.212;2023-02-25T10:33:29;7.20;99.90
285;DHT22;127;48.770;9.212;2023-02-25T10:36:05;7.40;99.90
285;DHT22;127;48.770;9.212;2023-02-25T10:38:41;7.60;99.90
285;DHT22;127;48.770;9.212;2023-02-25T10:41:10;7.50;99.90
285;DHT22;127;48.770;9.212;2023-02-25T10:43:39;7.30;99.90
285;DHT22;127;48.770;9.212;2023-02-25T10:46:12;7.10;99.90
285;DHT22;127;48.770;9.212;2023-02-25T10:48:43;7.00;99.90
285;DHT22;127;48.770;9.212;2023-02-25T10:51:15;7.00;99.90
285;DHT22;127;48.770;9.212;2023-02-25T10:54:05;7.00;99.90
285;DHT22;127;48.770;9.212;2023-02-25T10:56:40;6.80;99.90
285;DHT22;127;48.770;9.212;2023-02-25T10:59:25;6.80;99.90
285;DHT22;127;48.770;9.212;2023-02-25T11:01:54;6.80;99.90
285;DHT22;127;48.770;9.212;2023-02-25T11:04:28;6.70;99.90
285;DHT22;127;48.770;9.212;2023-02-25T11:06:59;6.50;99.90
285;DHT22;127;48.770;9.212;2023-02-25T11:09:33;6.50;99.90
285;DHT22;127;48.770;9.212;2023-02-25T11:12:17;6.40;99.90
285;DHT22;127;48.770;9.212;2023-02-25T11:14:50;6.40;99.90
285;DHT22;127;48.770;9.212;2023-02-25T11:17:19;6.50;99.90
285;DHT22;127;48.770;9.212;2023-02-25T11:19:51;6.60;99.90
285;DHT22;127;48.770;9.212;2023-02-25T11:22:30;6.90;99.90
285;DHT22;127;48.770;9.212;2023-02-25T11:25:15;7.40;99.90
285;DHT22;127;48.770;9.212;2023-02-25T11:27:47;8.50;99.90
285;DHT22;127;48.770;9.212;2023-02-25T11:30:31;8.70;99.90
285;DHT22;127;48.770;9.212;2023-02-25T11:33:03;8.40;99.90
285;DHT22;127;48.770;9.212;2023-02-25T11:35:35;8.20;99.90
285;DHT22;127;48.770;9.212;2023-02-25T11:38:21;8.20;99.90
285;DHT22;127;48.770;9.212;2023-02-25T11:40:54;8.00;99.90
285;DHT22;127;48.770;9.212;2023-02-25T11:43:24;7.70;99.90
285;DHT22;127;48.770;9.212;2023-02-25T11:45:59;7.20;99.90
285;DHT22;127;48.770;9.212;2023-02-25T11:48:33;6.90;99.90
285;DHT22;127;48.770;9.212;2023-02-25T11:51:18;6.80;99.90
285;DHT22;127;48.770;9.212;2023-02-25T11:53:59;6.50;99.90
285;DHT22;127;48.770;9.212;2023-02-25T11:56:35;6.40;99.90
285;DHT22;127;48.770;9.212;2023-02-25T11:59:15;6.50;99.90
285;DHT22;127;48.770;9.212;2023-02-25T12:02:01;6.40;99.90
285;DHT22;127;48.770;9.212;2023-02-25T12:17:13;7.10;99.90
285;DHT22;127;48.770;9.212;2023-02-25T12:20:24;7.00;99.90
285;DHT22;127;48.770;9.212;2023-02-25T12:23:43;6.90;99.90
285;DHT22;127;48.770;9.212;2023-02-25T12:26:24;6.90;99.90
285;DHT22;127;48.770;9.212;2023-02-25T12:29:08;6.70;99.90
285;DHT22;127;48.770;9.212;2023-02-25T12:32:00;6.50;99.90
285;DHT22;127;48.770;9.212;2023-02-25T12:34:59;6.40;99.90
285;DHT22;127;48.770;9.212;2023-02-25T12:38:00;6.40;99.90
285;DHT22;127;48.770;9.212;2023-02-25T12:40:55;6.30;99.90
285;DHT22;127;48.770;9.212;2023-02-25T12:43:33;6.10;99.90
285;DHT22;127;48.770;9.212;2023-02-25T12:46:26;6.20;99.90
285;DHT22;127;48.770;9.212;2023-02-25T12:52:25;6.00;99.90
285;DHT22;127;48.770;9.212;2023-02-25T12:58:12;5.70;99.90
285;DHT22;127;48.770;9.212;2023-02-25T13:01:13;5.30;99.90
285;DHT22;127;48.770;9.212;2023-02-25T13:07:03;5.00;99.90
285;DHT22;127;48.770;9.212;2023-02-25T13:09:55;5.10;99.90
285;DHT22;127;48.770;9.212;2023-02-25T13:12:48;5.30;99.90
285;DHT22;127;48.770;9.212;2023-02-25T13:15:28;5.40;99.90
285;DHT22;127;48.770;9.212;2023-02-25T13:18:14;5.40;99.90
285;DHT22;127;48.770;9.212;2023-02-25T13:21:11;5.40;99.90
285;DHT22;127;48.770;9.212;2023-02-25T13:24:08;5.30;99.90
285;DHT22;127;48.770;9.212;2023-02-25T13:32:45;5.30;99.90
285;DHT22;127;48.770;9.212;2023-02-25T13:35:27;5.20;99.90
285;DHT22;127;48.770;9.212;2023-02-25T13:38:10;5.20;99.90
285;DHT22;127;48.770;9.212;2023-02-25T13:41:04;5.30;99.90
285;DHT22;127;48.770;9.212;2023-02-25T13:44:04;5.20;99.90
285;DHT22;127;48.770;9.212;2023-02-25T13:46:58;5.30;99.90
285;DHT22;127;48.770;9.212;2023-02-25T13:49:56;5.30;99.90
285;DHT22;127;48.770;9.212;2023-02-25T13:52:33;5.90;99.90
285;DHT22;127;48.770;9.212;2023-02-25T13:55:22;6.50;99.90
285;DHT22;127;48.770;9.212;2023-02-25T13:58:01;7.10;99.90
285;DHT22;127;48.770;9.212;2023-02-25T14:01:06;7.50;99.90
285;DHT22;127;48.770;9.212;2023-02-25T14:09:48;7.60;99.90
285;DHT22;127;48.770;9.212;2023-02-25T14:12:32;7.80;99.90
285;DHT22;127;48.770;9.212;2023-02-25T14:15:20;8.90;99.90
285;DHT22;127;48.770;9.212;2023-02-25T14:18:23;10.20;99.90
285;DHT22;127;48.770;9.212;2023-02-25T14:21:07;11.40;99.90
285;DHT22;127;48.770;9.212;2023-02-25T14:23:49;12.80;99.90
285;DHT22;127;48.770;9.212;2023-02-25T14:26:31;13.60;99.90
285;DHT22;127;48.770;9.212;2023-02-25T14:29:16;14.20;99.90
285;DHT22;127;48.770;9.212;2023-02-25T14:32:20;14.10;99.90
285;DHT22;127;48.770;9.212;2023-02-25T14:35:09;14.40;99.90
285;DHT22;127;48.770;9.212;2023-02-25T14:37:49;13.10;99.90
285;DHT22;127;48.770;9.212;2023-02-25T14:40:35;11.70;99.90
285;DHT22;127;48.770;9.212;2023-02-25T14:43:28;10.40;99.90
285;DHT22;127;48.770;9.212;2023-02-25T14:46:03;9.40;99.90
285;DHT22;127;48.770;9.212;2023-02-25T14:48:39;8.70;99.90
285;DHT22;127;48.770;9.212;2023-02-25T14:51:39;8.20;99.90
285;DHT22;127;48.770;9.212;2023-02-25T15:00:34;7.60;99.90
285;DHT22;127;48.770;9.212;2023-02-25T15:03:35;7.40;99.90
285;DHT22;127;48.770;9.212;2023-02-25T15:09:34;7.00;99.90
285;DHT22;127;48.770;9.212;2023-02-25T15:12:18;6.90;99.90
285;DHT22;127;48.770;9.212;2023-02-25T15:15:01;6.80;99.90
285;DHT22;127;48.770;9.212;2023-02-25T15:18:04;6.80;99.90
285;DHT22;127;48.770;9.212;2023-02-25T15:20:38;7.10;99.90
285;DHT22;127;48.770;9.212;2023-02-25T15:23:09;7.10;99.90
285;DHT22;127;48.770;9.212;2023-02-25T15:25:42;6.90;99.90
285;DHT22;127;48.770;9.212;2023-02-25T15:28:36;6.80;99.90
285;DHT22;127;48.770;9.212;2023-02-25T15:31:24;6.60;99.90
285;DHT22;127;48.770;9.212;2023-02-25T15:40:40;7.00;99.90
285;DHT22;127;48.770;9.212;2023-02-25T15:46:44;6.80;99.90
285;DHT22;127;48.770;9.212;2023-02-25T15:49:30;6.60;99.90
285;DHT22;127;48.770;9.212;2023-02-25T15:52:01;6.50;99.90
285;DHT22;127;48.770;9.212;2023-02-25T15:54:48;6.50;99.90
285;DHT22;127;48.770;9.212;2023-02-25T15:57:36;6.30;99.90
285;DHT22;127;48.770;9.212;2023-02-25T16:06:16;5.60;99.90
285;DHT22;127;48.770;9.212;2023-02-25T16:08:50;5.60;99.90
285;DHT22;127;48.770;9.212;2023-02-25T16:11:32;5.40;99.90
285;DHT22;127;48.770;9.212;2023-02-25T16:14:04;5.30;99.90
285;DHT22;127;48.770;9.212;2023-02-25T16:16:35;5.00;99.90
285;DHT22;127;48.770;9.212;2023-02-25T16:19:10;4.60;99.90
285;DHT22;127;48.770;9.212;2023-02-25T16:21:47;4.40;99.90
285;DHT22;127;48.770;9.212;2023-02-25T16:24:17;4.20;99.90
285;DHT22;127;48.770;9.212;2023-02-25T16:26:54;4.00;99.90
285;DHT22;127;48.770;9.212;2023-02-25T16:29:44;3.80;99.90
285;DHT22;127;48.770;9.212;2023-02-25T16:32:24;3.60;99.90
285;DHT22;127;48.770;9.212;2023-02-25T16:34:58;3.50;99.90
285;DHT22;127;48.770;9.212;2023-02-25T16:37:40;3.50;99.90
285;DHT22;127;48.770;9.212;2023-02-25T16:40:18;3.40;99.90
285;DHT22;127;48.770;9.212;2023-02-25T16:42:49;3.50;99.90
285;DHT22;127;48.770;9.212;2023-02-25T16:45:24;3.50;99.90
285;DHT22;127;48.770;9.212;2023-02-25T16:47:55;3.60;99.90
285;DHT22;127;48.770;9.212;2023-02-25T16:50:26;3.60;99.90
285;DHT22;127;48.770;9.212;2023-02-25T16:52:59;3.60;99.90
285;DHT22;127;48.770;9.212;2023-02-25T16:55:35;3.60;99.90
285;DHT22;127;48.770;9.212;2023-02-25T16:58:17;3.60;99.90
285;DHT22;127;48.770;9.212;2023-02-25T17:00:49;3.60;99.90
285;DHT22;127;48.770;9.212;2023-02-25T17:03:19;3.60;99.90
285;DHT22;127;48.770;9.212;2023-02-25T17:06:03;3.50;99.90
285;DHT22;127;48.770;9.212;2023-02-25T17:08:36;3.50;99.90
285;DHT22;127;48.770;9.212;2023-02-25T17:11:15;3.50;99.90
285;DHT22;127;48.770;9.212;2023-02-25T17:13:45;3.50;99.90
285;DHT22;127;48.770;9.212;2023-02-25T17:16:17;3.50;99.90
285;DHT22;127;48.770;9.212;2023-02-25T17:18:49;3.40;99.90
285;DHT22;127;48.770;9.212;2023-02-25T17:21:24;3.40;99.90
285;DHT22;127;48.770;9.212;2023-02-25T17:23:57;3.30;99.90
285;DHT22;127;48.770;9.212;2023-02-25T17:26:27;3.30;99.90
285;DHT22;127;48.770;9.212;2023-02-25T17:28:59;3.20;99.90
285;DHT22;127;48.770;9.212;2023-02-25T17:31:28;3.10;99.90
285;DHT22;127;48.770;9.212;2023-02-25T17:33:58;3.10;99.90
285;DHT22;127;48.770;9.212;2023-02-25T17:36:31;3.10;99.90
285;DHT22;127;48.770;9.212;2023-02-25T17:39:05;3.10;99.90
285;DHT22;127;48.770;9.212;2023-02-25T17:41:34;3.10;99.90
285;DHT22;127;48.770;9.212;2023-02-25T17:44:05;2.90;99.90
285;DHT22;127;48.770;9.212;2023-02-25T17:46:38;2.40;99.90
285;DHT22;127;48.770;9.212;2023-02-25T17:49:18;2.00;99.90
285;DHT22;127;48.770;9.212;2023-02-25T17:51:52;1.80;99.90
285;DHT22;127;48.770;9.212;2023-02-25T17:54:25;1.50;99.90
285;DHT22;127;48.770;9.212;2023-02-25T17:56:56;1.30;99.90
285;DHT22;127;48.770;9.212;2023-02-25T17:59:32;1.20;99.90
285;DHT22;127;48.770;9.212;2023-02-25T18:02:25;1.00;99.90
285;DHT22;127;48.770;9.212;2023-02-25T18:05:13;0.90;1.00
285;DHT22;127;48.770;9.212;2023-02-25T18:08:01;0.90;1.00
285;DHT22;127;48.770;9.212;2023-02-25T18:10:47;0.90;1.00
285;DHT22;127;48.770;9.212;2023-02-25T18:13:20;0.80;1.00
285;DHT22;127;48.770;9.212;2023-02-25T18:16:26;0.80;1.00
285;DHT22;127;48.770;9.212;2023-02-25T18:18:56;0.80;1.00
285;DHT22;127;48.770;9.212;2023-02-25T18:21:26;0.80;1.00
285;DHT22;127;48.770;9.212;2023-02-25T18:23:55;0.80;1.00
285;DHT22;127;48.770;9.212;2023-02-25T18:26:27;0.80;1.00
285;DHT22;127;48.770;9.212;2023-02-25T18:28:55;0.80;1.00
285;DHT22;127;48.770;9.212;2023-02-25T18:31:24;0.80;1.00
285;DHT22;127;48.770;9.212;2023-02-25T18:33:53;0.80;1.00
285;DHT22;127;48.770;9.212;2023-02-25T18:36:24;0.80;1.00
285;DHT22;127;48.770;9.212;2023-02-25T18:38:54;0.80;1.00
285;DHT22;127;48.770;9.212;2023-02-25T18:41:27;0.80;1.00
285;DHT22;127;48.770;9.212;2023-02-25T18:43:58;0.90;1.00
285;DHT22;127;48.770;9.212;2023-02-25T18:46:26;0.80;1.00
285;DHT22;127;48.770;9.212;2023-02-25T18:48:55;0.80;1.00
285;DHT22;127;48.770;9.212;2023-02-25T18:51:23;0.90;1.00
285;DHT22;127;48.770;9.212;2023-02-25T18:53:52;0.90;1.00
285;DHT22;127;48.770;9.212;2023-02-25T18:56:21;1.00;1.00